Barrow: Past 24 Hour Conditions

 

Puvirnituq Airport

08:00 PM EDT 20 April 2014
This table is a summary of hourly weather conditions for the past 24 hours.
Date / Time
(EDT)
Wind(knots) Conditions Visibility(km) Pressure(kPa) Air tempC) Relative humidity(%) Dew pointC) Wind Chill
20 April 2014
20:00 ENE 8 Sunny 16 101.8 -10 81 -13 -17
19:00 ESE 6 Partly Cloudy 24 101.9 -9 83 -12 -15
18:00 ESE 5 Mainly Sunny 24 101.9 -6 86 -8 -10
17:00 SE 4 Partly Cloudy 24 101.9 -6 90 -8 -10
16:00 SSE 4 Mainly Sunny 24 102.0 -6 90 -8 -10
15:00 S 3 Mainly Sunny 24 102.0 -7 89 -8 -9
14:00 S 5 Mainly Sunny 24 102.1 -8 88 -10 -12
13:00 S 4 Mainly Sunny 24 102.2 -9 81 -12 -14
12:00 S 9 Mainly Sunny 24 102.3 -12 76 -15 -20
11:00 S 9 Mainly Sunny 24 102.3 -14 74 -17 -22
10:00 S 7 Mainly Sunny 24 102.4 -15 79 -18 -22
9:00 S 5 Mainly Sunny 24 102.4 -16 73 -20 -22
8:00 S 6 Mainly Sunny 24 102.5 -17 75 -21 -24
7:00 S 8 Sunny 16 102.5 -19 86 -21 -28
6:00 S 8 Light Snow 16 102.5 -19 87 -20 -28
5:00 SSE 8 Clear 16 102.5 -17 89 -19 -26
4:00 SSW 9 Light Snow 16 102.5 -17 89 -18 -25
3:00 SSW 4 Ice Crystals 1 102.5 -15 75 -18 -20
2:00 SW 7 Light Snow 1 102.5 -14 76 -18 -22
1:00 SSW 14 Light Snow 13 102.5 -14 77 -17 -24
0:00 SW 12 gust 17 Drifting Snow 24 102.5 -13 81 -16 -22
19 April 2014
23:00 WSW 14 gust 19 Drifting Snow 24 102.5 -13 79 -16 -22
22:00 WSW 14 gust 19 Drifting Snow 24 102.5 -12 76 -15 -21
21:00 WSW 16 gust 22 Drifting Snow 24 102.5 -11 78 -14 -21
20:00 SSW 17 gust 23 Sunny 24 102.5 -10 83 -12 -20
 
Map of Arctic - Eastern Arctic marine weather areas Baker Lake Airport Chesterfield Inlet Airport Coral Harbour Airport Gjoa Haven Airport Kugaaruk Airport Rankin Inlet Airport Shepherd Bay Airport Whale Cove Airport Arctic Bay Brevoort Island Qikiqtarjuaq Airport Cape Dorset Airport Cape Dyer Cape Hooper Clyde Airport Grise Fiord Airport Hall Beach Airport Igloolik Airport Iqaluit Airport Longstaff Bluff Pangnirtung Airport Pond Inlet Airport Repulse Bay Airport Resolute Airport Resolution Island Rowley Island Airport Taloyoak Airport Wager Bay Akulivik Airport Ivujivik Airport Puvirnituq Airport Kangiqsujuaq Airport Kangirsuk Airport Quaqtaq Airport Tasiujaq Airport Cape Kakkiviak Cape Kiglapait Nain Airport Saglek Cape Mercy Kimmirut Airport Aupaluk Airport Salluit Airport Kangiqsualujjuaq Airport Fort Ross
Legend: buoyBuoy land stationLand Station